Overview Statistics Trail Chart Weather Telemetry Raw packets
 

This is the latest recevied weather packets stored in our database for station/object KI5PFS. If no packets are shown the sender has not sent any weather packets the latest 10 day(s).

<< 1 2 3 4 >>
Time Temp. Humidity Pressure Rain* Wind** Luminosity Snow
1788626412 33.89° C 52% 1011.5 hPa 0 mm - - -
1788625803 35° C 51% 1011.6 hPa 0 mm - - -
1788625203 33.89° C 53% 1011.5 hPa 0 mm - - -
1788624603 33.89° C 54% 1011.5 hPa 0 mm - - -
1788624003 32.78° C 54% 1011.5 hPa 0 mm - - -
1788623405 33.89° C 53% 1011.6 hPa 0 mm - - -
1788622803 32.78° C 54% 1011.5 hPa 0 mm - - -
1788622203 32.78° C 56% 1011.5 hPa 0 mm - - -
1788621604 32.22° C 59% 1011.5 hPa 0 mm - - -
1788621003 32.78° C 57% 1011.5 hPa 0 mm - - -
1788620404 32.22° C 59% 1011.4 hPa 0 mm - - -
1788619803 32.22° C 60% 1011.3 hPa 0 mm - - -
1788619203 32.22° C 61% 1011.3 hPa 0 mm - - -
1788618603 31.11° C 63% 1011.3 hPa 0 mm - - -
1788618004 31.11° C 63% 1011.4 hPa 0 mm - - -
1788617403 30° C 64% 1011.5 hPa 0 mm - - -
1788616803 28.89° C 65% 1011.5 hPa 0 mm - - -
1788616204 28.89° C 66% 1011.4 hPa 0 mm - - -
1788615604 28.89° C 68% 1011.3 hPa 0 mm - - -
1788615003 27.78° C 69% 1011.1 hPa 0 mm - - -
1788614404 27.78° C 68% 1011.2 hPa 0 mm - - -
1788613804 27.78° C 67% 1011.2 hPa 0 mm - - -
1788613203 27.78° C 70% 1011 hPa 0 mm - - -
1788612603 26.11° C 74% 1010.9 hPa 0 mm - - -
1788612003 25° C 78% 1010.6 hPa 0 mm - - -

* Rain latest hour (hover to see other rain measurements)
** Current wind speed in m/s (hover to see current wind gust speed)